sensor_id;sensor_type;location;lat;lon;timestamp;temperature;humidity
15991;DHT22;8100;50.994;4.538;2024-01-30T00:01:46;6.60;99.90
15991;DHT22;8100;50.994;4.538;2024-01-30T00:04:33;6.70;99.90
15991;DHT22;8100;50.994;4.538;2024-01-30T00:07:20;6.70;99.90
15991;DHT22;8100;50.994;4.538;2024-01-30T00:10:07;6.70;99.90
15991;DHT22;8100;50.994;4.538;2024-01-30T00:12:55;6.80;99.90
15991;DHT22;8100;50.994;4.538;2024-01-30T00:15:42;6.90;99.90
15991;DHT22;8100;50.994;4.538;2024-01-30T00:18:29;7.00;99.90
15991;DHT22;8100;50.994;4.538;2024-01-30T00:21:17;7.20;99.90
15991;DHT22;8100;50.994;4.538;2024-01-30T00:24:04;7.20;99.90
15991;DHT22;8100;50.994;4.538;2024-01-30T00:26:51;7.40;99.90
15991;DHT22;8100;50.994;4.538;2024-01-30T00:29:39;7.40;99.90
15991;DHT22;8100;50.994;4.538;2024-01-30T00:32:26;7.50;99.90
15991;DHT22;8100;50.994;4.538;2024-01-30T00:35:13;7.50;99.90
15991;DHT22;8100;50.994;4.538;2024-01-30T00:38:00;7.60;99.90
15991;DHT22;8100;50.994;4.538;2024-01-30T00:40:47;7.70;99.90
15991;DHT22;8100;50.994;4.538;2024-01-30T00:43:34;7.80;93.10
15991;DHT22;8100;50.994;4.538;2024-01-30T00:46:23;7.90;1.00
15991;DHT22;8100;50.994;4.538;2024-01-30T00:49:10;7.80;1.00
15991;DHT22;8100;50.994;4.538;2024-01-30T00:51:57;8.30;40.80
15991;DHT22;8100;50.994;4.538;2024-01-30T00:54:44;8.40;1.00
15991;DHT22;8100;50.994;4.538;2024-01-30T00:57:31;8.60;99.90
15991;DHT22;8100;50.994;4.538;2024-01-30T01:00:18;8.60;1.00
15991;DHT22;8100;50.994;4.538;2024-01-30T01:03:08;8.60;99.90
15991;DHT22;8100;50.994;4.538;2024-01-30T01:05:55;8.60;99.90
15991;DHT22;8100;50.994;4.538;2024-01-30T01:08:41;8.40;1.00
15991;DHT22;8100;50.994;4.538;2024-01-30T01:11:28;8.30;1.00
15991;DHT22;8100;50.994;4.538;2024-01-30T01:14:16;8.20;1.00
15991;DHT22;8100;50.994;4.538;2024-01-30T01:17:03;8.20;99.90
15991;DHT22;8100;50.994;4.538;2024-01-30T01:19:51;8.20;1.00
15991;DHT22;8100;50.994;4.538;2024-01-30T01:22:38;8.10;1.00
15991;DHT22;8100;50.994;4.538;2024-01-30T01:25:25;8.10;99.90
15991;DHT22;8100;50.994;4.538;2024-01-30T01:28:12;8.00;1.00
15991;DHT22;8100;50.994;4.538;2024-01-30T01:30:59;7.90;1.00
15991;DHT22;8100;50.994;4.538;2024-01-30T01:33:50;7.90;1.00
15991;DHT22;8100;50.994;4.538;2024-01-30T01:36:39;7.90;1.00
15991;DHT22;8100;50.994;4.538;2024-01-30T01:39:26;7.80;1.00
15991;DHT22;8100;50.994;4.538;2024-01-30T01:42:13;7.80;1.00
15991;DHT22;8100;50.994;4.538;2024-01-30T01:45:00;7.70;1.00
15991;DHT22;8100;50.994;4.538;2024-01-30T01:47:51;7.70;99.90
15991;DHT22;8100;50.994;4.538;2024-01-30T01:50:38;7.50;1.00
15991;DHT22;8100;50.994;4.538;2024-01-30T01:53:27;7.50;1.00
15991;DHT22;8100;50.994;4.538;2024-01-30T01:56:14;7.50;99.90
15991;DHT22;8100;50.994;4.538;2024-01-30T01:59:05;7.40;99.90
15991;DHT22;8100;50.994;4.538;2024-01-30T02:01:54;7.30;1.00
15991;DHT22;8100;50.994;4.538;2024-01-30T02:04:42;7.40;1.00
15991;DHT22;8100;50.994;4.538;2024-01-30T02:07:29;7.30;1.00
15991;DHT22;8100;50.994;4.538;2024-01-30T02:10:17;7.20;1.00
15991;DHT22;8100;50.994;4.538;2024-01-30T02:13:04;7.20;1.00
15991;DHT22;8100;50.994;4.538;2024-01-30T02:15:51;7.20;1.00
15991;DHT22;8100;50.994;4.538;2024-01-30T02:18:38;7.20;1.00
15991;DHT22;8100;50.994;4.538;2024-01-30T02:21:30;7.10;1.00
15991;DHT22;8100;50.994;4.538;2024-01-30T02:24:17;7.00;1.00
15991;DHT22;8100;50.994;4.538;2024-01-30T02:27:04;6.90;1.00
15991;DHT22;8100;50.994;4.538;2024-01-30T02:29:51;6.80;1.00
15991;DHT22;8100;50.994;4.538;2024-01-30T02:32:38;6.90;99.90
15991;DHT22;8100;50.994;4.538;2024-01-30T02:35:25;6.90;99.90
15991;DHT22;8100;50.994;4.538;2024-01-30T02:38:14;6.70;99.90
15991;DHT22;8100;50.994;4.538;2024-01-30T02:41:02;6.60;99.90
15991;DHT22;8100;50.994;4.538;2024-01-30T02:43:48;6.60;99.90
15991;DHT22;8100;50.994;4.538;2024-01-30T02:46:35;6.60;99.90
15991;DHT22;8100;50.994;4.538;2024-01-30T02:49:22;6.60;99.90
15991;DHT22;8100;50.994;4.538;2024-01-30T02:52:09;6.60;99.90
15991;DHT22;8100;50.994;4.538;2024-01-30T02:54:58;6.50;99.90
15991;DHT22;8100;50.994;4.538;2024-01-30T02:57:45;6.60;99.90
15991;DHT22;8100;50.994;4.538;2024-01-30T03:00:32;6.60;99.90
15991;DHT22;8100;50.994;4.538;2024-01-30T03:03:18;6.80;99.90
15991;DHT22;8100;50.994;4.538;2024-01-30T03:06:05;6.80;99.90
15991;DHT22;8100;50.994;4.538;2024-01-30T03:08:52;7.00;99.90
15991;DHT22;8100;50.994;4.538;2024-01-30T03:11:41;7.50;99.90
15991;DHT22;8100;50.994;4.538;2024-01-30T03:14:30;7.40;99.90
15991;DHT22;8100;50.994;4.538;2024-01-30T03:17:17;7.50;99.90
15991;DHT22;8100;50.994;4.538;2024-01-30T03:20:05;7.80;99.90
15991;DHT22;8100;50.994;4.538;2024-01-30T03:22:54;8.10;99.90
15991;DHT22;8100;50.994;4.538;2024-01-30T03:25:41;8.40;99.90
15991;DHT22;8100;50.994;4.538;2024-01-30T03:28:30;8.70;99.90
15991;DHT22;8100;50.994;4.538;2024-01-30T03:31:17;9.00;99.90
15991;DHT22;8100;50.994;4.538;2024-01-30T03:34:04;9.30;99.90
15991;DHT22;8100;50.994;4.538;2024-01-30T03:36:51;9.40;99.90
15991;DHT22;8100;50.994;4.538;2024-01-30T03:39:38;9.40;99.90
15991;DHT22;8100;50.994;4.538;2024-01-30T03:42:25;9.50;99.90
15991;DHT22;8100;50.994;4.538;2024-01-30T03:45:14;9.50;22.20
15991;DHT22;8100;50.994;4.538;2024-01-30T03:48:01;9.70;8.30
15991;DHT22;8100;50.994;4.538;2024-01-30T03:50:48;9.70;1.00
15991;DHT22;8100;50.994;4.538;2024-01-30T03:53:35;9.80;1.00
15991;DHT22;8100;50.994;4.538;2024-01-30T03:56:22;9.70;1.00
15991;DHT22;8100;50.994;4.538;2024-01-30T03:59:11;9.70;1.00
15991;DHT22;8100;50.994;4.538;2024-01-30T04:02:00;9.90;1.00
15991;DHT22;8100;50.994;4.538;2024-01-30T04:04:47;10.00;1.00
15991;DHT22;8100;50.994;4.538;2024-01-30T04:07:33;10.00;1.00
15991;DHT22;8100;50.994;4.538;2024-01-30T04:10:20;9.80;1.00
15991;DHT22;8100;50.994;4.538;2024-01-30T04:13:08;9.70;1.00
15991;DHT22;8100;50.994;4.538;2024-01-30T04:15:54;9.50;1.00
15991;DHT22;8100;50.994;4.538;2024-01-30T04:18:43;9.40;1.00
15991;DHT22;8100;50.994;4.538;2024-01-30T04:21:30;9.10;1.00
15991;DHT22;8100;50.994;4.538;2024-01-30T04:24:17;9.10;1.00
15991;DHT22;8100;50.994;4.538;2024-01-30T04:27:04;8.90;1.00
15991;DHT22;8100;50.994;4.538;2024-01-30T04:29:51;8.90;1.00
15991;DHT22;8100;50.994;4.538;2024-01-30T04:32:38;8.90;1.00
15991;DHT22;8100;50.994;4.538;2024-01-30T04:35:26;8.70;1.00
15991;DHT22;8100;50.994;4.538;2024-01-30T04:38:13;8.70;1.00
15991;DHT22;8100;50.994;4.538;2024-01-30T04:41:00;8.70;67.70
15991;DHT22;8100;50.994;4.538;2024-01-30T04:43:47;8.60;1.00
15991;DHT22;8100;50.994;4.538;2024-01-30T04:46:34;8.60;1.00
15991;DHT22;8100;50.994;4.538;2024-01-30T04:49:21;8.50;21.70
15991;DHT22;8100;50.994;4.538;2024-01-30T04:52:09;8.50;78.70
15991;DHT22;8100;50.994;4.538;2024-01-30T04:54:56;8.50;59.70
15991;DHT22;8100;50.994;4.538;2024-01-30T04:57:43;8.50;99.90
15991;DHT22;8100;50.994;4.538;2024-01-30T05:00:30;8.60;99.90
15991;DHT22;8100;50.994;4.538;2024-01-30T05:03:18;8.60;93.20
15991;DHT22;8100;50.994;4.538;2024-01-30T05:06:06;8.50;62.90
15991;DHT22;8100;50.994;4.538;2024-01-30T05:08:54;8.60;99.90
15991;DHT22;8100;50.994;4.538;2024-01-30T05:11:41;8.50;61.30
15991;DHT22;8100;50.994;4.538;2024-01-30T05:14:29;8.60;99.90
15991;DHT22;8100;50.994;4.538;2024-01-30T05:17:15;8.60;99.90
15991;DHT22;8100;50.994;4.538;2024-01-30T05:20:03;8.60;99.90
15991;DHT22;8100;50.994;4.538;2024-01-30T05:22:50;8.60;99.90
15991;DHT22;8100;50.994;4.538;2024-01-30T05:25:39;8.60;98.30
15991;DHT22;8100;50.994;4.538;2024-01-30T05:28:26;8.60;99.90
15991;DHT22;8100;50.994;4.538;2024-01-30T05:31:13;8.70;92.90
15991;DHT22;8100;50.994;4.538;2024-01-30T05:34:00;8.70;13.90
15991;DHT22;8100;50.994;4.538;2024-01-30T05:36:47;8.70;7.00
15991;DHT22;8100;50.994;4.538;2024-01-30T05:39:34;8.60;34.60
15991;DHT22;8100;50.994;4.538;2024-01-30T05:42:23;8.60;18.30
15991;DHT22;8100;50.994;4.538;2024-01-30T05:45:10;8.60;53.40
15991;DHT22;8100;50.994;4.538;2024-01-30T05:47:57;8.70;99.90
15991;DHT22;8100;50.994;4.538;2024-01-30T05:50:44;8.60;19.10
15991;DHT22;8100;50.994;4.538;2024-01-30T05:53:31;8.70;57.90
15991;DHT22;8100;50.994;4.538;2024-01-30T05:56:18;8.70;13.70
15991;DHT22;8100;50.994;4.538;2024-01-30T05:59:06;8.70;23.80
15991;DHT22;8100;50.994;4.538;2024-01-30T06:01:53;8.70;1.00
15991;DHT22;8100;50.994;4.538;2024-01-30T06:04:40;8.70;15.60
15991;DHT22;8100;50.994;4.538;2024-01-30T06:07:27;8.70;1.00
15991;DHT22;8100;50.994;4.538;2024-01-30T06:10:14;8.70;1.00
15991;DHT22;8100;50.994;4.538;2024-01-30T06:13:01;8.70;9.00
15991;DHT22;8100;50.994;4.538;2024-01-30T06:15:50;8.80;10.70
15991;DHT22;8100;50.994;4.538;2024-01-30T06:18:37;8.80;1.90
15991;DHT22;8100;50.994;4.538;2024-01-30T06:21:24;8.80;1.00
15991;DHT22;8100;50.994;4.538;2024-01-30T06:24:11;8.80;1.00
15991;DHT22;8100;50.994;4.538;2024-01-30T06:26:59;8.80;1.00
15991;DHT22;8100;50.994;4.538;2024-01-30T06:29:46;8.80;1.00
15991;DHT22;8100;50.994;4.538;2024-01-30T06:32:35;8.70;1.00
15991;DHT22;8100;50.994;4.538;2024-01-30T06:35:22;8.80;1.00
15991;DHT22;8100;50.994;4.538;2024-01-30T06:38:09;8.80;1.00
15991;DHT22;8100;50.994;4.538;2024-01-30T06:40:56;9.00;1.00
15991;DHT22;8100;50.994;4.538;2024-01-30T06:43:43;9.00;1.00
15991;DHT22;8100;50.994;4.538;2024-01-30T06:46:30;9.00;1.00
15991;DHT22;8100;50.994;4.538;2024-01-30T06:49:19;9.10;1.00
15991;DHT22;8100;50.994;4.538;2024-01-30T06:52:07;9.00;1.00
15991;DHT22;8100;50.994;4.538;2024-01-30T06:54:54;9.10;1.00
15991;DHT22;8100;50.994;4.538;2024-01-30T06:57:41;9.20;1.00
15991;DHT22;8100;50.994;4.538;2024-01-30T07:00:28;9.30;1.00
15991;DHT22;8100;50.994;4.538;2024-01-30T07:03:16;9.40;1.00
15991;DHT22;8100;50.994;4.538;2024-01-30T07:06:04;9.50;1.00
15991;DHT22;8100;50.994;4.538;2024-01-30T07:08:51;9.50;1.00
15991;DHT22;8100;50.994;4.538;2024-01-30T07:11:38;9.50;99.90
15991;DHT22;8100;50.994;4.538;2024-01-30T07:14:25;9.50;99.90
15991;DHT22;8100;50.994;4.538;2024-01-30T07:17:12;9.60;99.90
15991;DHT22;8100;50.994;4.538;2024-01-30T07:19:59;9.60;99.90
15991;DHT22;8100;50.994;4.538;2024-01-30T07:22:48;9.60;99.90
15991;DHT22;8100;50.994;4.538;2024-01-30T07:25:35;9.50;85.70
15991;DHT22;8100;50.994;4.538;2024-01-30T07:28:22;9.50;99.90
15991;DHT22;8100;50.994;4.538;2024-01-30T07:31:09;9.50;1.00
15991;DHT22;8100;50.994;4.538;2024-01-30T07:33:56;9.50;99.90
15991;DHT22;8100;50.994;4.538;2024-01-30T07:36:43;9.50;99.90
15991;DHT22;8100;50.994;4.538;2024-01-30T07:39:31;9.70;99.90
15991;DHT22;8100;50.994;4.538;2024-01-30T07:42:18;10.10;1.00
15991;DHT22;8100;50.994;4.538;2024-01-30T07:45:06;10.20;1.00
15991;DHT22;8100;50.994;4.538;2024-01-30T07:47:53;10.30;1.00
15991;DHT22;8100;50.994;4.538;2024-01-30T07:50:40;10.60;1.00
15991;DHT22;8100;50.994;4.538;2024-01-30T07:53:27;10.80;99.90
15991;DHT22;8100;50.994;4.538;2024-01-30T07:56:15;10.80;1.00
15991;DHT22;8100;50.994;4.538;2024-01-30T07:59:02;10.90;1.00
15991;DHT22;8100;50.994;4.538;2024-01-30T08:01:49;10.90;1.00
15991;DHT22;8100;50.994;4.538;2024-01-30T08:04:37;10.90;1.00
15991;DHT22;8100;50.994;4.538;2024-01-30T08:07:23;10.90;1.00
15991;DHT22;8100;50.994;4.538;2024-01-30T08:10:12;11.00;99.90
15991;DHT22;8100;50.994;4.538;2024-01-30T08:13:00;11.10;97.50
15991;DHT22;8100;50.994;4.538;2024-01-30T08:15:47;11.00;56.80
15991;DHT22;8100;50.994;4.538;2024-01-30T08:18:34;11.00;99.90
15991;DHT22;8100;50.994;4.538;2024-01-30T08:21:21;11.00;99.90
15991;DHT22;8100;50.994;4.538;2024-01-30T08:24:09;11.10;99.90
15991;DHT22;8100;50.994;4.538;2024-01-30T08:26:57;11.10;1.00
15991;DHT22;8100;50.994;4.538;2024-01-30T08:29:48;11.10;1.00
15991;DHT22;8100;50.994;4.538;2024-01-30T08:32:35;11.10;1.00
15991;DHT22;8100;50.994;4.538;2024-01-30T08:35:22;11.10;1.00
15991;DHT22;8100;50.994;4.538;2024-01-30T08:38:09;11.10;1.00
15991;DHT22;8100;50.994;4.538;2024-01-30T08:40:58;11.10;1.00
15991;DHT22;8100;50.994;4.538;2024-01-30T08:43:45;11.20;1.00
15991;DHT22;8100;50.994;4.538;2024-01-30T08:46:33;11.20;1.00
15991;DHT22;8100;50.994;4.538;2024-01-30T08:49:20;11.20;1.00
15991;DHT22;8100;50.994;4.538;2024-01-30T08:52:07;11.20;1.00
15991;DHT22;8100;50.994;4.538;2024-01-30T08:54:54;11.30;1.00
15991;DHT22;8100;50.994;4.538;2024-01-30T08:57:41;11.30;1.00
15991;DHT22;8100;50.994;4.538;2024-01-30T09:00:28;11.30;99.90
15991;DHT22;8100;50.994;4.538;2024-01-30T09:03:17;11.30;33.50
15991;DHT22;8100;50.994;4.538;2024-01-30T09:06:08;11.30;38.00
15991;DHT22;8100;50.994;4.538;2024-01-30T09:08:55;11.40;1.00
15991;DHT22;8100;50.994;4.538;2024-01-30T09:11:43;11.40;1.00
15991;DHT22;8100;50.994;4.538;2024-01-30T09:14:30;11.40;1.00
15991;DHT22;8100;50.994;4.538;2024-01-30T09:17:17;11.40;1.00
15991;DHT22;8100;50.994;4.538;2024-01-30T09:20:07;11.40;1.00
15991;DHT22;8100;50.994;4.538;2024-01-30T09:22:55;11.40;2.30
15991;DHT22;8100;50.994;4.538;2024-01-30T09:25:42;11.40;1.00
15991;DHT22;8100;50.994;4.538;2024-01-30T09:28:29;11.40;1.00
15991;DHT22;8100;50.994;4.538;2024-01-30T09:31:16;11.50;1.00
15991;DHT22;8100;50.994;4.538;2024-01-30T09:34:03;11.50;1.00
15991;DHT22;8100;50.994;4.538;2024-01-30T09:36:51;11.50;1.00
15991;DHT22;8100;50.994;4.538;2024-01-30T09:39:38;11.50;1.00
15991;DHT22;8100;50.994;4.538;2024-01-30T09:42:28;11.50;1.00
15991;DHT22;8100;50.994;4.538;2024-01-30T09:45:20;11.50;1.00
15991;DHT22;8100;50.994;4.538;2024-01-30T09:48:10;11.60;1.00
15991;DHT22;8100;50.994;4.538;2024-01-30T09:50:58;11.60;1.00
15991;DHT22;8100;50.994;4.538;2024-01-30T09:53:48;11.50;1.00
15991;DHT22;8100;50.994;4.538;2024-01-30T09:56:35;11.50;16.60
15991;DHT22;8100;50.994;4.538;2024-01-30T09:59:23;11.50;24.00
15991;DHT22;8100;50.994;4.538;2024-01-30T10:02:10;11.40;30.00
15991;DHT22;8100;50.994;4.538;2024-01-30T10:04:57;11.40;94.70
15991;DHT22;8100;50.994;4.538;2024-01-30T10:07:52;11.40;99.90
15991;DHT22;8100;50.994;4.538;2024-01-30T10:10:41;11.40;99.90
15991;DHT22;8100;50.994;4.538;2024-01-30T10:13:28;11.40;99.90
15991;DHT22;8100;50.994;4.538;2024-01-30T10:16:15;11.30;99.90
15991;DHT22;8100;50.994;4.538;2024-01-30T10:19:02;11.30;99.90
15991;DHT22;8100;50.994;4.538;2024-01-30T10:21:49;11.30;99.90
15991;DHT22;8100;50.994;4.538;2024-01-30T10:24:37;11.30;99.90
15991;DHT22;8100;50.994;4.538;2024-01-30T10:27:26;11.30;99.90
15991;DHT22;8100;50.994;4.538;2024-01-30T10:30:14;11.30;99.90
15991;DHT22;8100;50.994;4.538;2024-01-30T10:33:01;11.20;99.90
15991;DHT22;8100;50.994;4.538;2024-01-30T10:35:49;11.20;99.90
15991;DHT22;8100;50.994;4.538;2024-01-30T10:38:38;11.10;99.90
15991;DHT22;8100;50.994;4.538;2024-01-30T10:41:31;11.10;99.90
15991;DHT22;8100;50.994;4.538;2024-01-30T10:44:20;11.10;99.90
15991;DHT22;8100;50.994;4.538;2024-01-30T10:47:12;11.00;99.90
15991;DHT22;8100;50.994;4.538;2024-01-30T10:49:59;11.00;99.90
15991;DHT22;8100;50.994;4.538;2024-01-30T10:52:47;11.00;1.00
15991;DHT22;8100;50.994;4.538;2024-01-30T10:55:34;11.00;99.90
15991;DHT22;8100;50.994;4.538;2024-01-30T10:58:23;11.10;1.00
15991;DHT22;8100;50.994;4.538;2024-01-30T11:01:12;11.10;1.00
15991;DHT22;8100;50.994;4.538;2024-01-30T11:03:59;11.10;1.00
15991;DHT22;8100;50.994;4.538;2024-01-30T11:06:49;11.00;1.00
15991;DHT22;8100;50.994;4.538;2024-01-30T11:09:36;11.00;99.90
15991;DHT22;8100;50.994;4.538;2024-01-30T11:12:24;11.00;99.90
15991;DHT22;8100;50.994;4.538;2024-01-30T11:15:12;11.00;99.90
15991;DHT22;8100;50.994;4.538;2024-01-30T11:18:01;11.00;99.90
15991;DHT22;8100;50.994;4.538;2024-01-30T11:20:48;10.90;99.90
15991;DHT22;8100;50.994;4.538;2024-01-30T11:23:35;10.90;99.90
15991;DHT22;8100;50.994;4.538;2024-01-30T11:26:27;10.80;99.90
15991;DHT22;8100;50.994;4.538;2024-01-30T11:29:14;10.80;99.90
15991;DHT22;8100;50.994;4.538;2024-01-30T11:32:02;10.80;99.90
15991;DHT22;8100;50.994;4.538;2024-01-30T11:34:50;10.80;99.90
15991;DHT22;8100;50.994;4.538;2024-01-30T11:37:37;10.90;99.90
15991;DHT22;8100;50.994;4.538;2024-01-30T11:40:27;10.90;98.70
15991;DHT22;8100;50.994;4.538;2024-01-30T11:43:15;10.90;95.50
15991;DHT22;8100;50.994;4.538;2024-01-30T11:46:06;10.80;59.80
15991;DHT22;8100;50.994;4.538;2024-01-30T11:48:53;10.80;23.00
15991;DHT22;8100;50.994;4.538;2024-01-30T11:51:42;10.80;1.00
15991;DHT22;8100;50.994;4.538;2024-01-30T11:54:29;10.70;1.00
15991;DHT22;8100;50.994;4.538;2024-01-30T11:57:16;10.80;1.00
15991;DHT22;8100;50.994;4.538;2024-01-30T12:00:04;11.10;1.00
15991;DHT22;8100;50.994;4.538;2024-01-30T12:02:55;11.20;1.00
15991;DHT22;8100;50.994;4.538;2024-01-30T12:05:42;11.30;1.00
15991;DHT22;8100;50.994;4.538;2024-01-30T12:08:32;11.20;1.00
15991;DHT22;8100;50.994;4.538;2024-01-30T12:11:18;11.10;1.00
15991;DHT22;8100;50.994;4.538;2024-01-30T12:14:05;11.20;1.00
15991;DHT22;8100;50.994;4.538;2024-01-30T12:16:52;11.30;1.00
15991;DHT22;8100;50.994;4.538;2024-01-30T12:19:39;11.30;1.00
15991;DHT22;8100;50.994;4.538;2024-01-30T12:22:26;11.50;1.00
15991;DHT22;8100;50.994;4.538;2024-01-30T12:25:16;11.60;1.00
15991;DHT22;8100;50.994;4.538;2024-01-30T12:28:04;11.70;1.00
15991;DHT22;8100;50.994;4.538;2024-01-30T12:30:55;11.80;1.00
15991;DHT22;8100;50.994;4.538;2024-01-30T12:33:42;11.70;1.00
15991;DHT22;8100;50.994;4.538;2024-01-30T12:36:29;11.60;1.00
15991;DHT22;8100;50.994;4.538;2024-01-30T12:39:17;11.70;1.00
15991;DHT22;8100;50.994;4.538;2024-01-30T12:42:05;11.90;1.00
15991;DHT22;8100;50.994;4.538;2024-01-30T12:44:52;12.00;1.00
15991;DHT22;8100;50.994;4.538;2024-01-30T12:47:39;12.10;1.00
15991;DHT22;8100;50.994;4.538;2024-01-30T12:50:26;12.10;1.00
15991;DHT22;8100;50.994;4.538;2024-01-30T12:53:13;11.90;1.00
15991;DHT22;8100;50.994;4.538;2024-01-30T12:56:00;12.00;1.00
15991;DHT22;8100;50.994;4.538;2024-01-30T12:58:49;11.90;1.00
15991;DHT22;8100;50.994;4.538;2024-01-30T13:01:36;11.90;1.00
15991;DHT22;8100;50.994;4.538;2024-01-30T13:04:23;11.90;1.00
15991;DHT22;8100;50.994;4.538;2024-01-30T13:07:10;12.10;1.00
15991;DHT22;8100;50.994;4.538;2024-01-30T13:09:57;12.00;99.90
15991;DHT22;8100;50.994;4.538;2024-01-30T13:12:48;11.90;99.90
15991;DHT22;8100;50.994;4.538;2024-01-30T13:15:36;11.80;99.90
15991;DHT22;8100;50.994;4.538;2024-01-30T13:18:24;11.70;99.90
15991;DHT22;8100;50.994;4.538;2024-01-30T13:21:11;11.50;99.90
15991;DHT22;8100;50.994;4.538;2024-01-30T13:23:58;11.40;99.90
15991;DHT22;8100;50.994;4.538;2024-01-30T13:26:45;11.30;99.90
15991;DHT22;8100;50.994;4.538;2024-01-30T13:29:32;11.20;1.00
15991;DHT22;8100;50.994;4.538;2024-01-30T13:32:20;11.10;1.00
15991;DHT22;8100;50.994;4.538;2024-01-30T13:35:07;11.00;1.00
15991;DHT22;8100;50.994;4.538;2024-01-30T13:37:54;10.90;1.00
15991;DHT22;8100;50.994;4.538;2024-01-30T13:40:41;10.90;1.00
15991;DHT22;8100;50.994;4.538;2024-01-30T13:43:28;10.90;1.00
15991;DHT22;8100;50.994;4.538;2024-01-30T13:46:15;10.80;1.00
15991;DHT22;8100;50.994;4.538;2024-01-30T13:49:04;10.80;1.00
15991;DHT22;8100;50.994;4.538;2024-01-30T13:51:52;10.70;1.00
15991;DHT22;8100;50.994;4.538;2024-01-30T13:54:39;10.70;1.00
15991;DHT22;8100;50.994;4.538;2024-01-30T13:57:26;10.60;1.00
15991;DHT22;8100;50.994;4.538;2024-01-30T14:00:13;10.60;1.00
15991;DHT22;8100;50.994;4.538;2024-01-30T14:03:01;10.60;1.00
15991;DHT22;8100;50.994;4.538;2024-01-30T14:05:50;10.50;1.00
15991;DHT22;8100;50.994;4.538;2024-01-30T14:08:37;10.50;1.00
15991;DHT22;8100;50.994;4.538;2024-01-30T14:11:24;10.30;1.00
15991;DHT22;8100;50.994;4.538;2024-01-30T14:14:11;10.20;1.00
15991;DHT22;8100;50.994;4.538;2024-01-30T14:16:59;10.20;1.00
15991;DHT22;8100;50.994;4.538;2024-01-30T14:19:45;10.10;1.00
15991;DHT22;8100;50.994;4.538;2024-01-30T14:22:34;10.00;1.00
15991;DHT22;8100;50.994;4.538;2024-01-30T14:25:21;10.00;1.00
15991;DHT22;8100;50.994;4.538;2024-01-30T14:28:08;10.00;1.00
15991;DHT22;8100;50.994;4.538;2024-01-30T14:30:55;9.90;1.00
15991;DHT22;8100;50.994;4.538;2024-01-30T14:33:42;9.90;1.00
15991;DHT22;8100;50.994;4.538;2024-01-30T14:36:29;9.90;1.00
15991;DHT22;8100;50.994;4.538;2024-01-30T14:39:18;9.90;1.00
15991;DHT22;8100;50.994;4.538;2024-01-30T14:42:06;9.90;1.00
15991;DHT22;8100;50.994;4.538;2024-01-30T14:44:53;9.80;1.00
15991;DHT22;8100;50.994;4.538;2024-01-30T14:47:40;9.70;1.00
15991;DHT22;8100;50.994;4.538;2024-01-30T14:50:27;9.70;1.00
15991;DHT22;8100;50.994;4.538;2024-01-30T14:53:14;9.60;1.00
15991;DHT22;8100;50.994;4.538;2024-01-30T14:56:03;9.60;1.00
15991;DHT22;8100;50.994;4.538;2024-01-30T14:58:51;9.60;1.00
15991;DHT22;8100;50.994;4.538;2024-01-30T15:01:38;9.60;1.00
15991;DHT22;8100;50.994;4.538;2024-01-30T15:04:25;9.60;1.00
15991;DHT22;8100;50.994;4.538;2024-01-30T15:07:12;9.60;1.00
15991;DHT22;8100;50.994;4.538;2024-01-30T15:09:59;9.60;1.00
15991;DHT22;8100;50.994;4.538;2024-01-30T15:12:47;9.60;1.00
15991;DHT22;8100;50.994;4.538;2024-01-30T15:15:34;9.60;1.00
15991;DHT22;8100;50.994;4.538;2024-01-30T15:18:21;9.60;1.00
15991;DHT22;8100;50.994;4.538;2024-01-30T15:21:08;9.60;1.00
15991;DHT22;8100;50.994;4.538;2024-01-30T15:23:55;9.50;1.00
15991;DHT22;8100;50.994;4.538;2024-01-30T15:26:42;9.50;1.00
15991;DHT22;8100;50.994;4.538;2024-01-30T15:29:31;9.40;1.00
15991;DHT22;8100;50.994;4.538;2024-01-30T15:32:18;9.40;1.00
15991;DHT22;8100;50.994;4.538;2024-01-30T15:35:05;9.40;1.00
15991;DHT22;8100;50.994;4.538;2024-01-30T15:37:53;9.40;1.00
15991;DHT22;8100;50.994;4.538;2024-01-30T15:40:40;9.40;1.00
15991;DHT22;8100;50.994;4.538;2024-01-30T15:43:27;9.30;1.00
15991;DHT22;8100;50.994;4.538;2024-01-30T15:46:15;9.30;1.00
15991;DHT22;8100;50.994;4.538;2024-01-30T15:49:02;9.40;1.00
15991;DHT22;8100;50.994;4.538;2024-01-30T15:51:50;9.40;1.00
15991;DHT22;8100;50.994;4.538;2024-01-30T15:54:37;9.40;1.00
15991;DHT22;8100;50.994;4.538;2024-01-30T15:57:24;9.30;1.00
15991;DHT22;8100;50.994;4.538;2024-01-30T16:00:12;9.30;1.00
15991;DHT22;8100;50.994;4.538;2024-01-30T16:03:01;9.30;1.00
15991;DHT22;8100;50.994;4.538;2024-01-30T16:05:48;9.30;1.00
15991;DHT22;8100;50.994;4.538;2024-01-30T16:08:35;9.30;1.00
15991;DHT22;8100;50.994;4.538;2024-01-30T16:11:22;9.20;1.00
15991;DHT22;8100;50.994;4.538;2024-01-30T16:14:09;9.10;1.00
15991;DHT22;8100;50.994;4.538;2024-01-30T16:16:56;9.10;1.00
15991;DHT22;8100;50.994;4.538;2024-01-30T16:19:44;8.90;1.00
15991;DHT22;8100;50.994;4.538;2024-01-30T16:22:32;8.90;5.50
15991;DHT22;8100;50.994;4.538;2024-01-30T16:25:19;8.80;99.90
15991;DHT22;8100;50.994;4.538;2024-01-30T16:28:06;8.50;99.90
15991;DHT22;8100;50.994;4.538;2024-01-30T16:30:53;8.30;1.00
15991;DHT22;8100;50.994;4.538;2024-01-30T16:33:40;8.10;1.00
15991;DHT22;8100;50.994;4.538;2024-01-30T16:36:29;7.90;1.00
15991;DHT22;8100;50.994;4.538;2024-01-30T16:39:16;7.80;99.90
15991;DHT22;8100;50.994;4.538;2024-01-30T16:42:03;7.90;1.00
15991;DHT22;8100;50.994;4.538;2024-01-30T16:44:50;7.80;1.00
15991;DHT22;8100;50.994;4.538;2024-01-30T16:47:37;7.80;1.00
15991;DHT22;8100;50.994;4.538;2024-01-30T16:50:24;7.80;1.00
15991;DHT22;8100;50.994;4.538;2024-01-30T16:53:12;7.80;1.00
15991;DHT22;8100;50.994;4.538;2024-01-30T16:55:59;7.80;1.00
15991;DHT22;8100;50.994;4.538;2024-01-30T16:58:46;7.80;1.00
15991;DHT22;8100;50.994;4.538;2024-01-30T17:01:33;7.80;1.00
15991;DHT22;8100;50.994;4.538;2024-01-30T17:04:20;7.80;1.00
15991;DHT22;8100;50.994;4.538;2024-01-30T17:07:07;7.80;99.90
15991;DHT22;8100;50.994;4.538;2024-01-30T17:09:55;7.90;93.90
15991;DHT22;8100;50.994;4.538;2024-01-30T17:12:42;7.90;1.00
15991;DHT22;8100;50.994;4.538;2024-01-30T17:15:30;8.00;1.00
15991;DHT22;8100;50.994;4.538;2024-01-30T17:18:17;7.90;1.00
15991;DHT22;8100;50.994;4.538;2024-01-30T17:21:05;8.00;1.00
15991;DHT22;8100;50.994;4.538;2024-01-30T17:23:52;8.00;1.00
15991;DHT22;8100;50.994;4.538;2024-01-30T17:26:40;8.00;1.00
15991;DHT22;8100;50.994;4.538;2024-01-30T17:29:27;8.00;1.00
15991;DHT22;8100;50.994;4.538;2024-01-30T17:32:14;8.00;1.00
15991;DHT22;8100;50.994;4.538;2024-01-30T17:35:01;8.00;1.00
15991;DHT22;8100;50.994;4.538;2024-01-30T17:37:48;8.00;1.00
15991;DHT22;8100;50.994;4.538;2024-01-30T17:40:35;8.00;1.00
15991;DHT22;8100;50.994;4.538;2024-01-30T17:43:23;8.00;1.00
15991;DHT22;8100;50.994;4.538;2024-01-30T17:46:10;8.00;1.00
15991;DHT22;8100;50.994;4.538;2024-01-30T17:48:57;8.00;1.00
15991;DHT22;8100;50.994;4.538;2024-01-30T17:51:44;8.00;1.00
15991;DHT22;8100;50.994;4.538;2024-01-30T17:54:31;8.00;1.00
15991;DHT22;8100;50.994;4.538;2024-01-30T17:57:19;8.00;1.00
15991;DHT22;8100;50.994;4.538;2024-01-30T18:00:08;8.00;1.00
15991;DHT22;8100;50.994;4.538;2024-01-30T18:02:55;8.00;1.00
15991;DHT22;8100;50.994;4.538;2024-01-30T18:05:44;8.00;1.00
15991;DHT22;8100;50.994;4.538;2024-01-30T18:08:32;8.00;1.00
15991;DHT22;8100;50.994;4.538;2024-01-30T18:11:19;7.90;1.00
15991;DHT22;8100;50.994;4.538;2024-01-30T18:14:07;7.90;1.00
15991;DHT22;8100;50.994;4.538;2024-01-30T18:16:55;7.90;1.00